Time;durP1;ratioP1;P1;durP2;ratioP2;P2;SDS_P1;SDS_P2;PMS_P1;PMS_P2;Temp;Humidity;BMP_temperature;BMP_pressure;BME280_temperature;BME280_humidity;BME280_pressure;Samples;Min_cycle;Max_cycle;Signal;HPM_P1;HPM_P2
2022/12/10 00:01:45;;;;;;;92.70;40.63;;;;;;;;;;5051886;28;20918;-71
2022/12/10 00:04:12;;;;;;;89.95;39.22;;;;;;;;;;5052070;28;20431;-72
2022/12/10 00:06:39;;;;;;;91.65;40.33;;;;;;;;;;5036964;28;20420;-72
2022/12/10 00:09:08;;;;;;;91.53;40.47;;;;;;;;;;5053319;28;20451;-71
2022/12/10 00:11:34;;;;;;;98.32;41.25;;;;;;;;;;5052722;28;20423;-71
2022/12/10 00:14:00;;;;;;;92.70;40.75;;;;;;;;;;5055122;28;20426;-72
2022/12/10 00:16:28;;;;;;;99.47;42.92;;;;;;;;;;5035835;28;20534;-71
2022/12/10 00:18:54;;;;;;;95.85;40.47;;;;;;;;;;5047370;28;20918;-70
2022/12/10 00:21:22;;;;;;;94.30;40.67;;;;;;;;;;5053121;28;20911;-72
2022/12/10 00:23:48;;;;;;;92.00;41.30;;;;;;;;;;5036870;28;20420;-71
2022/12/10 00:26:16;;;;;;;112.70;43.33;;;;;;;;;;5050315;28;20419;-71
2022/12/10 00:28:43;;;;;;;105.05;42.53;;;;;;;;;;5046749;28;20502;-71
2022/12/10 00:31:13;;;;;;;102.10;42.38;;;;;;;;;;5033216;28;20415;-79
2022/12/10 00:33:40;;;;;;;99.63;41.88;;;;;;;;;;5037383;28;20421;-79
2022/12/10 00:36:11;;;;;;;98.88;42.42;;;;;;;;;;5053371;28;20428;-79
2022/12/10 00:38:37;;;;;;;101.05;42.78;;;;;;;;;;5022428;28;20915;-79
2022/12/10 00:41:04;;;;;;;98.00;43.38;;;;;;;;;;5053960;28;20497;-79
2022/12/10 00:43:30;;;;;;;100.55;41.55;;;;;;;;;;5037759;28;20423;-80
2022/12/10 00:45:56;;;;;;;101.18;43.65;;;;;;;;;;5038350;28;20920;-79
2022/12/10 00:48:22;;;;;;;101.75;42.92;;;;;;;;;;5060229;28;20419;-80
2022/12/10 00:50:59;;;;;;;102.40;42.72;;;;;;;;;;5067666;28;20813;-79
2022/12/10 00:53:25;;;;;;;132.60;47.90;;;;;;;;;;5045913;28;20415;-79
2022/12/10 00:55:52;;;;;;;103.63;42.40;;;;;;;;;;5017944;28;20427;-79
2022/12/10 00:58:20;;;;;;;103.13;41.33;;;;;;;;;;5031731;28;20426;-79
2022/12/10 01:00:47;;;;;;;105.23;43.77;;;;;;;;;;5005370;28;20451;-79
2022/12/10 01:03:13;;;;;;;100.15;42.10;;;;;;;;;;5020160;28;20401;-79
2022/12/10 01:05:39;;;;;;;231.37;56.90;;;;;;;;;;5035212;28;20934;-79
2022/12/10 01:08:05;;;;;;;100.38;41.95;;;;;;;;;;5019330;28;20505;-79
2022/12/10 01:10:31;;;;;;;104.33;42.50;;;;;;;;;;5020365;28;20415;-80
2022/12/10 01:12:58;;;;;;;103.50;42.20;;;;;;;;;;5018153;28;20429;-81
2022/12/10 01:15:24;;;;;;;105.13;42.40;;;;;;;;;;5023355;28;20420;-80
2022/12/10 01:17:50;;;;;;;108.53;43.53;;;;;;;;;;5013940;28;20834;-79
2022/12/10 01:20:16;;;;;;;107.03;43.30;;;;;;;;;;5019970;28;20472;-79
2022/12/10 01:22:42;;;;;;;103.55;41.88;;;;;;;;;;4999814;28;20435;-79
2022/12/10 01:25:08;;;;;;;105.07;42.97;;;;;;;;;;5015498;28;20435;-79
2022/12/10 01:27:34;;;;;;;181.13;49.40;;;;;;;;;;5030925;28;20467;-79
2022/12/10 01:30:00;;;;;;;109.60;42.78;;;;;;;;;;5032182;28;20404;-78
2022/12/10 01:32:26;;;;;;;104.82;42.45;;;;;;;;;;5027881;28;20438;-79
2022/12/10 01:34:52;;;;;;;103.63;41.92;;;;;;;;;;5014852;28;20476;-79
2022/12/10 01:37:19;;;;;;;101.53;41.65;;;;;;;;;;5014115;28;20433;-79
2022/12/10 01:39:45;;;;;;;109.13;43.42;;;;;;;;;;5010770;28;20419;-80
2022/12/10 01:42:13;;;;;;;103.05;43.05;;;;;;;;;;5026468;28;20434;-79
2022/12/10 01:44:42;;;;;;;104.53;43.30;;;;;;;;;;5024676;28;20423;-80
2022/12/10 01:47:08;;;;;;;108.32;44.05;;;;;;;;;;5058582;28;20430;-80
2022/12/10 01:49:38;;;;;;;111.00;44.15;;;;;;;;;;5005295;28;20425;-79
2022/12/10 01:52:06;;;;;;;109.60;42.43;;;;;;;;;;5025249;28;20937;-79
2022/12/10 01:54:37;;;;;;;112.13;43.03;;;;;;;;;;5034286;28;20513;-80
2022/12/10 01:57:05;;;;;;;111.88;44.58;;;;;;;;;;5046824;28;20604;-80
2022/12/10 01:59:31;;;;;;;121.70;46.50;;;;;;;;;;5051764;28;20472;-80
2022/12/10 02:02:00;;;;;;;116.45;45.75;;;;;;;;;;5018993;28;20411;-80
2022/12/10 02:04:26;;;;;;;119.68;45.67;;;;;;;;;;5032888;28;20431;-80
2022/12/10 02:07:09;;;;;;;112.72;44.03;;;;;;;;;;5047623;28;20426;-80
2022/12/10 02:09:38;;;;;;;115.07;44.88;;;;;;;;;;5043990;28;20768;-80
2022/12/10 02:12:18;;;;;;;112.90;44.65;;;;;;;;;;5049790;28;20904;-80
2022/12/10 02:14:54;;;;;;;151.80;48.97;;;;;;;;;;5033684;28;20425;-81
2022/12/10 02:17:23;;;;;;;115.40;45.60;;;;;;;;;;5046216;28;20423;-80
2022/12/10 02:19:58;;;;;;;110.40;45.03;;;;;;;;;;5038809;28;20539;-80
2022/12/10 02:22:26;;;;;;;117.07;46.25;;;;;;;;;;5053093;28;20479;-80
2022/12/10 02:24:53;;;;;;;119.00;46.50;;;;;;;;;;5048597;28;20935;-79
2022/12/10 02:27:22;;;;;;;122.43;45.70;;;;;;;;;;5052792;28;20490;-80
2022/12/10 02:29:48;;;;;;;122.63;46.30;;;;;;;;;;5053353;28;20453;-80
2022/12/10 02:32:20;;;;;;;117.70;46.58;;;;;;;;;;5051135;28;20428;-80
2022/12/10 02:34:51;;;;;;;116.20;46.13;;;;;;;;;;5050066;28;20422;-80
2022/12/10 02:37:31;;;;;;;148.50;49.00;;;;;;;;;;5051575;28;20828;-80
2022/12/10 02:39:59;;;;;;;119.53;47.17;;;;;;;;;;5048696;28;20925;-80
2022/12/10 02:42:26;;;;;;;126.53;47.10;;;;;;;;;;5052207;28;20423;-80
2022/12/10 02:44:53;;;;;;;117.10;45.88;;;;;;;;;;5035365;28;20424;-80
2022/12/10 02:47:20;;;;;;;120.53;44.97;;;;;;;;;;5051180;28;20434;-71
2022/12/10 02:49:51;;;;;;;114.30;46.03;;;;;;;;;;5055156;28;20536;-71
2022/12/10 02:52:18;;;;;;;118.25;45.92;;;;;;;;;;5039037;28;20454;-71
2022/12/10 02:54:46;;;;;;;118.22;45.97;;;;;;;;;;5042301;28;20427;-72
2022/12/10 02:57:15;;;;;;;115.97;46.35;;;;;;;;;;5032300;28;20885;-71
2022/12/10 02:59:53;;;;;;;123.60;47.40;;;;;;;;;;5050743;28;20417;-71
2022/12/10 03:02:56;;;;;;;116.03;46.53;;;-1.30;99.90;;;;;;5051721;28;20402;-71
2022/12/10 03:05:26;;;;;;;115.40;45.60;;;;;;;;;;5050528;28;20422;-80
2022/12/10 03:08:03;;;;;;;121.68;46.35;;;;;;;;;;5054841;28;20460;-80
2022/12/10 03:10:29;;;;;;;120.43;46.22;;;;;;;;;;5051635;28;20424;-79
2022/12/10 03:12:58;;;;;;;125.95;46.47;;;;;;;;;;5047259;28;20432;-79
2022/12/10 03:15:25;;;;;;;125.15;48.15;;;;;;;;;;5051312;28;20421;-80
2022/12/10 03:17:52;;;;;;;127.93;48.33;;;;;;;;;;5037297;28;20427;-80
2022/12/10 03:20:21;;;;;;;125.47;48.23;;;;;;;;;;5051842;28;20490;-79
2022/12/10 03:22:48;;;;;;;131.85;47.75;;;;;;;;;;5053883;28;20398;-79
2022/12/10 03:25:16;;;;;;;126.53;46.80;;;;;;;;;;5053682;28;20455;-80
2022/12/10 03:27:43;;;;;;;128.60;46.88;;;;;;;;;;5069242;28;20405;-79
2022/12/10 03:30:09;;;;;;;129.88;48.75;;;;;;;;;;5060522;28;20422;-79
2022/12/10 03:32:36;;;;;;;129.60;49.40;;;;;;;;;;5035445;28;20424;-80
2022/12/10 03:35:02;;;;;;;141.45;49.85;;;;;;;;;;5052781;28;20961;-80
2022/12/10 03:37:29;;;;;;;137.73;49.15;;;;;;;;;;5054266;28;20470;-80
2022/12/10 03:39:57;;;;;;;135.75;48.47;;;;;;;;;;5068055;28;20398;-79
2022/12/10 03:42:23;;;;;;;132.57;48.63;;;;;;;;;;5053832;28;20435;-80
2022/12/10 03:44:52;;;;;;;137.27;47.88;;;;;;;;;;5034021;28;20417;-80
2022/12/10 03:47:19;;;;;;;138.77;48.53;;;;;;;;;;5045870;28;20443;-80
2022/12/10 03:49:45;;;;;;;133.80;47.88;;;;;;;;;;5052785;28;20417;-80
2022/12/10 03:52:12;;;;;;;133.10;48.38;;;;;;;;;;5032324;28;20423;-79
2022/12/10 03:54:38;;;;;;;131.35;48.13;;;;;;;;;;5038796;28;20939;-80
2022/12/10 03:57:04;;;;;;;139.38;50.00;;;;;;;;;;5048197;28;20415;-80
2022/12/10 03:59:30;;;;;;;148.05;49.67;;;;;;;;;;5053497;28;20424;-80
2022/12/10 04:01:56;;;;;;;137.43;48.97;;;;;;;;;;5053276;28;20937;-79
2022/12/10 04:04:22;;;;;;;134.13;48.15;;;;;;;;;;5054558;28;20775;-79
2022/12/10 04:06:48;;;;;;;132.50;47.72;;;;;;;;;;5053694;28;20506;-71
2022/12/10 04:09:15;;;;;;;139.48;49.63;;;;;;;;;;5055223;28;20891;-71
2022/12/10 04:11:41;;;;;;;162.70;51.17;;;;;;;;;;5053224;28;20484;-72
2022/12/10 04:16:53;;;;;;;135.90;49.13;;;;;;;;;;5038901;28;20484;-72
2022/12/10 04:19:21;;;;;;;138.02;50.80;;;;;;;;;;5054135;28;20422;-72
2022/12/10 04:27:24;;;;;;;138.00;49.28;;;;;;;;;;5051948;28;20451;-71
2022/12/10 04:29:50;;;;;;;132.67;49.27;;;;;;;;;;5053883;28;20423;-71
2022/12/10 04:32:17;;;;;;;148.05;50.78;;;;;;;;;;5048951;28;20419;-70
2022/12/10 04:34:43;;;;;;;150.75;51.75;;;;;;;;;;5035153;28;20420;-71
2022/12/10 04:37:10;;;;;;;174.68;55.47;;;;;;;;;;5045994;28;20424;-70
2022/12/10 04:39:37;;;;;;;163.98;52.88;;;;;;;;;;5052186;28;20415;-70
2022/12/10 04:42:03;;;;;;;167.85;53.85;;;;;;;;;;5044924;28;20424;-71
2022/12/10 04:44:29;;;;;;;158.30;52.80;;;;;;;;;;5034602;28;20438;-71
2022/12/10 04:46:55;;;;;;;164.50;53.40;;;;;;;;;;5052242;28;20429;-72
2022/12/10 04:49:21;;;;;;;165.00;52.77;;;;;;;;;;5053973;28;20439;-72
2022/12/10 04:51:48;;;;;;;216.40;59.13;;;;;;;;;;5052588;28;20446;-72
2022/12/10 04:54:14;;;;;;;174.18;56.90;;;;;;;;;;5044947;28;20421;-72
2022/12/10 04:56:40;;;;;;;197.88;57.85;;;;;;;;;;5050568;28;20428;-72
2022/12/10 04:59:07;;;;;;;187.38;56.33;;;;;;;;;;5042035;28;20419;-80
2022/12/10 05:01:33;;;;;;;182.23;56.15;;;;;;;;;;5054555;28;20404;-79
2022/12/10 05:04:00;;;;;;;182.65;56.58;;;;;;;;;;5053281;28;20934;-79
2022/12/10 05:06:26;;;;;;;225.48;58.28;;;;;;;;;;5037133;28;20492;-79
2022/12/10 05:08:52;;;;;;;253.30;62.30;;;;;;;;;;5048428;28;20467;-79
2022/12/10 05:11:19;;;;;;;234.40;58.30;;;;;;;;;;5048911;28;20423;-80
2022/12/10 05:13:46;;;;;;;252.48;61.42;;;;;;;;;;5027980;28;20419;-79
2022/12/10 05:16:13;;;;;;;248.65;62.97;;;;;;;;;;5054151;28;20503;-79
2022/12/10 05:18:40;;;;;;;230.43;60.92;;;;;;;;;;5036301;28;20425;-79
2022/12/10 05:21:07;;;;;;;242.38;62.90;;;;;;;;;;5036637;28;20915;-79
2022/12/10 05:23:34;;;;;;;428.55;76.22;;;;;;;;;;5053799;28;20411;-80
2022/12/10 05:26:07;;;;;;;374.65;72.65;;;;;;;;;;5048386;28;20474;-80
2022/12/10 05:28:35;;;;;;;312.73;70.20;;;;;;;;;;5042969;28;20469;-80
2022/12/10 05:31:01;;;;;;;260.80;65.25;;;;;;;;;;5030515;28;20421;-80
2022/12/10 05:33:28;;;;;;;360.58;71.38;;;;;;;;;;5045067;28;20428;-80
2022/12/10 05:36:01;;;;;;;319.13;70.10;;;;;;;;;;5019599;28;20454;-80
2022/12/10 05:38:28;;;;;;;543.78;87.50;;;;;;;;;;5053226;28;20764;-80
2022/12/10 05:40:54;;;;;;;290.45;66.22;;;;;;;;;;5050918;28;20416;-80
2022/12/10 05:43:20;;;;;;;423.48;75.25;;;;;;;;;;5052362;28;20474;-80
2022/12/10 05:45:47;;;;;;;462.95;81.38;;;;;;;;;;5053230;28;20419;-80
2022/12/10 05:48:14;;;;;;;435.10;78.15;;;;;;;;;;5053081;28;20415;-80
2022/12/10 05:50:40;;;;;;;303.90;66.78;;;;;;;;;;5060830;28;20412;-80
2022/12/10 05:53:06;;;;;;;732.33;104.45;;;;;;;;;;5070623;28;20415;-80
2022/12/10 05:55:33;;;;;;;560.92;89.40;;;;;;;;;;5054059;28;20428;-81
2022/12/10 05:58:02;;;;;;;534.30;81.40;;;;;;;;;;5052326;28;20930;-79
2022/12/10 06:00:28;;;;;;;563.40;82.00;;;;;;;;;;5047854;28;20419;-80
2022/12/10 06:02:54;;;;;;;636.65;94.13;;;;;;;;;;5065796;28;20420;-79
2022/12/10 06:05:21;;;;;;;1458.88;171.82;;;;;;;;;;5055565;28;20419;-79
2022/12/10 06:07:47;;;;;;;1180.75;138.43;;;;;;;;;;5034886;28;20419;-80
2022/12/10 06:10:13;;;;;;;986.80;120.88;;;;;;;;;;5050045;28;20460;-80
2022/12/10 06:12:39;;;;;;;911.38;110.82;;;;;;;;;;5046309;28;20470;-80
2022/12/10 06:15:06;;;;;;;990.72;118.35;;;;;;;;;;5016720;28;20425;-80
2022/12/10 06:17:32;;;;;;;515.08;76.10;;;;;;;;;;5039142;28;20459;-80
2022/12/10 06:19:58;;;;;;;1040.80;125.18;;;;;;;;;;5042614;28;20408;-81
2022/12/10 06:22:24;;;;;;;850.03;112.43;;;;;;;;;;5035621;28;20419;-80
2022/12/10 06:24:50;;;;;;;706.65;106.50;;;;;;;;;;5038082;28;20462;-80
2022/12/10 06:27:16;;;;;;;1084.82;129.35;;;;;;;;;;5056402;28;20415;-80
2022/12/10 06:29:42;;;;;;;1050.93;130.80;;;;;;;;;;5023139;28;20415;-80
2022/12/10 06:32:08;;;;;;;1999.90;295.33;;;;;;;;;;5055041;28;20931;-80
2022/12/10 06:34:34;;;;;;;1134.30;139.57;;;;;;;;;;5055474;28;20504;-81
2022/12/10 06:37:00;;;;;;;1144.00;145.05;;;;;;;;;;5021241;28;20422;-80
2022/12/10 06:39:26;;;;;;;929.05;116.50;;;;;;;;;;5040210;28;20523;-81
2022/12/10 06:41:52;;;;;;;848.78;109.25;;;;;;;;;;5020065;28;20492;-81
2022/12/10 06:44:19;;;;;;;886.38;117.35;;;;;;;;;;5037369;28;20408;-81
2022/12/10 06:46:45;;;;;;;708.67;90.60;;;;;;;;;;5036919;28;20473;-81
2022/12/10 06:49:11;;;;;;;967.83;122.35;;;;;;;;;;5026117;28;20927;-81
2022/12/10 06:51:38;;;;;;;736.47;99.40;;;;;;;;;;5036717;28;20419;-80
2022/12/10 06:54:05;;;;;;;801.13;102.80;;;;;;;;;;5041587;28;20921;-80
2022/12/10 06:56:31;;;;;;;927.33;115.33;;;;;;;;;;5018636;28;20873;-81
2022/12/10 06:58:57;;;;;;;556.72;79.13;;;;;;;;;;4997194;28;20417;-80
2022/12/10 07:01:27;;;;;;;459.23;72.13;;;;;;;;;;5029870;28;20515;-80
2022/12/10 07:03:54;;;;;;;1669.00;186.93;;;;;;;;;;5032533;28;20430;-80
2022/12/10 07:06:20;;;;;;;1504.70;170.93;;;;;;;;;;5031937;28;20427;-80
2022/12/10 07:08:47;;;;;;;1331.40;156.87;;;;;;;;;;5015695;28;20454;-80
2022/12/10 07:11:14;;;;;;;488.10;80.85;;;;;;;;;;5016106;28;20928;-80
2022/12/10 07:13:41;;;;;;;465.98;77.72;;;;;;;;;;5014808;28;20439;-80
2022/12/10 07:16:17;;;;;;;614.65;90.78;;;;;;;;;;5031753;28;20423;-80
2022/12/10 07:18:44;;;;;;;1204.40;144.50;;;;;;;;;;5017039;28;20759;-80
2022/12/10 07:21:16;;;;;;;494.70;82.53;;;;;;;;;;5032620;28;20430;-70
2022/12/10 07:23:42;;;;;;;465.48;75.95;;;;;;;;;;5031449;28;20415;-71
2022/12/10 07:26:08;;;;;;;502.10;80.30;;;;;;;;;;5030208;28;20498;-73
2022/12/10 07:28:34;;;;;;;600.13;88.75;;;;;;;;;;5023157;28;20767;-71
2022/12/10 07:31:01;;;;;;;634.20;90.80;;;;;;;;;;5012339;28;20477;-71
2022/12/10 07:33:27;;;;;;;482.15;72.47;;;;;;;;;;5031701;28;20411;-71
2022/12/10 07:35:53;;;;;;;485.13;72.85;;;;;;;;;;5008719;28;20423;-71
2022/12/10 07:38:19;;;;;;;464.48;71.82;;;;;;;;;;4995933;28;20419;-71
2022/12/10 07:40:46;;;;;;;552.53;77.43;;;;;;;;;;5007531;28;20429;-71
2022/12/10 07:43:12;;;;;;;386.17;62.20;;;;;;;;;;5012206;28;20434;-71
2022/12/10 07:45:38;;;;;;;520.85;68.70;;;;;;;;;;5001434;28;20773;-71
2022/12/10 07:48:04;;;;;;;386.95;63.22;;;;;;;;;;5003872;28;20424;-70
2022/12/10 07:50:30;;;;;;;468.42;70.43;;;;;;;;;;5007216;28;20435;-72
2022/12/10 07:52:56;;;;;;;521.53;75.05;;;;;;;;;;4992961;28;20434;-71
2022/12/10 07:55:22;;;;;;;573.58;79.82;;;;;;;;;;5012072;28;20432;-69
2022/12/10 07:57:48;;;;;;;442.42;67.75;;;;;;;;;;5029222;28;20423;-70
2022/12/10 08:00:14;;;;;;;566.50;78.65;;;;;;;;;;5005135;28;20428;-71
2022/12/10 08:02:40;;;;;;;390.85;63.28;;;;;;;;;;5013348;28;20424;-71
2022/12/10 08:05:07;;;;;;;398.88;60.22;;;;;;;;;;5029493;28;20451;-70
2022/12/10 08:07:33;;;;;;;340.05;59.72;;;;;;;;;;5015135;28;20418;-70
2022/12/10 08:09:59;;;;;;;372.25;62.40;;;;;;;;;;5020132;28;20423;-70
2022/12/10 08:12:25;;;;;;;438.35;65.00;;;;;;;;;;5005147;28;20784;-70
2022/12/10 08:14:52;;;;;;;396.80;63.38;;;;;;;;;;5025124;28;20427;-71
2022/12/10 08:17:18;;;;;;;415.40;64.55;;;;;;;;;;5026073;28;20438;-71
2022/12/10 08:19:44;;;;;;;376.67;60.27;;;;;;;;;;5012318;28;20893;-72
2022/12/10 08:22:10;;;;;;;454.45;66.25;;;;;;;;;;5010610;28;20409;-71
2022/12/10 08:24:36;;;;;;;429.57;63.23;;;;;;;;;;5001135;28;20939;-70
2022/12/10 08:27:02;;;;;;;575.45;76.20;;;;;;;;;;5010614;28;20519;-71
2022/12/10 08:29:28;;;;;;;377.10;61.77;;;;;;;;;;5027064;28;20446;-71
2022/12/10 08:31:54;;;;;;;396.33;60.78;;;;;;;;;;5027151;28;20437;-70
2022/12/10 08:34:20;;;;;;;356.73;60.60;;;;;;;;;;5027884;28;20427;-70
2022/12/10 08:36:47;;;;;;;782.38;94.30;;;;;;;;;;5030119;28;20522;-71
2022/12/10 08:39:16;;;;;;;472.45;72.78;;;;;;;;;;5027762;28;20419;-70
2022/12/10 08:41:43;;;;;;;420.20;69.30;;;;;;;;;;5002907;28;20782;-73
2022/12/10 08:44:09;;;;;;;368.67;61.20;;;;;;;;;;5024241;28;20432;-71
2022/12/10 08:46:35;;;;;;;320.65;52.50;;;;;;;;;;5021615;28;20427;-70
2022/12/10 08:49:01;;;;;;;447.88;61.53;;;;;;;;;;5008316;28;20476;-71
2022/12/10 08:51:27;;;;;;;1352.22;141.38;;;;;;;;;;5003766;28;20963;-69
2022/12/10 08:53:54;;;;;;;303.85;53.72;;;;;;;;;;5013464;28;20485;-70
2022/12/10 08:56:20;;;;;;;332.00;61.47;;;;;;;;;;5021302;28;20509;-70
2022/12/10 08:58:46;;;;;;;517.78;81.30;;;;;;;;;;5027383;28;20426;-70
2022/12/10 09:01:16;;;;;;;561.20;84.83;;;;;;;;;;5026465;28;20434;-71
2022/12/10 09:03:42;;;;;;;547.58;86.82;;;;;;;;;;5013157;28;20445;-69
2022/12/10 09:06:10;;;;;;;559.10;88.45;;;;;;;;;;5026858;28;20855;-70
2022/12/10 09:08:36;;;;;;;548.90;85.35;;;;;;;;;;5029728;28;20979;-70
2022/12/10 09:11:07;;;;;;;569.67;79.30;;;;;;;;;;5025964;28;20428;-70
2022/12/10 09:13:33;;;;;;;550.13;78.15;;;;;;;;;;5027597;28;20461;-71
2022/12/10 09:15:59;;;;;;;590.95;86.07;;;;;;;;;;5020539;28;20442;-70
2022/12/10 09:18:25;;;;;;;1016.40;122.60;;;;;;;;;;5011440;28;20422;-70
2022/12/10 09:20:52;;;;;;;494.88;73.03;;;;;;;;;;4997936;28;20511;-70
2022/12/10 09:23:18;;;;;;;527.40;73.53;;;;;;;;;;5016412;28;20434;-70
2022/12/10 09:25:47;;;;;;;561.77;80.63;;;;;;;;;;5009594;28;20430;-71
2022/12/10 09:28:13;;;;;;;441.98;68.70;;;;;;;;;;5009753;28;20424;-70
2022/12/10 09:30:39;;;;;;;445.90;66.20;;;;;;;;;;5019187;28;20415;-70
2022/12/10 09:33:05;;;;;;;591.78;85.85;;;;;;;;;;5004712;28;20491;-70
2022/12/10 09:35:31;;;;;;;1567.20;169.75;;;;;;;;;;4987997;28;20503;-70
2022/12/10 09:37:57;;;;;;;359.90;64.07;;;;;;;;;;5004741;28;20892;-71
2022/12/10 09:40:36;;;;;;;418.65;66.97;;;;;;;;;;5014453;28;20416;-71
2022/12/10 09:43:02;;;;;;;430.33;69.60;;;;;;;;;;5026735;28;20524;-71
2022/12/10 09:45:45;;;;;;;774.50;101.07;;;;;;;;;;5026326;28;20428;-70
2022/12/10 09:48:14;;;;;;;461.35;70.00;;;;;;;;;;5009652;28;20786;-70
2022/12/10 09:50:53;;;;;;;462.42;73.25;;;;;;;;;;5027160;28;20782;-72
2022/12/10 09:53:20;;;;;;;434.33;67.45;;;;;;;;;;5027520;28;20941;-72
2022/12/10 09:55:48;;;;;;;638.35;87.03;;;;;;;;;;5014709;28;20438;-72
2022/12/10 09:58:19;;;;;;;1328.10;149.75;;;;;;;;;;5043678;28;20436;-72
2022/12/10 10:00:46;;;;;;;364.77;66.93;;;;;;;;;;5046047;28;20430;-71
2022/12/10 10:03:13;;;;;;;540.97;94.95;;;;;;;;;;5035029;28;20479;-71
2022/12/10 10:05:57;;;;;;;341.85;67.65;;;;;;;;;;5052415;28;20504;-71
2022/12/10 10:08:29;;;;;;;361.80;65.10;;;;;;;;;;5050140;28;20433;-72
2022/12/10 10:10:56;;;;;;;391.90;67.07;;;;;;;;;;5053004;28;20412;-71
2022/12/10 10:13:35;;;;;;;378.25;66.15;;;;;;;;;;5034196;28;20777;-71
2022/12/10 10:16:21;;;;;;;801.05;106.57;;;;;;;;;;5053134;28;20417;-71
2022/12/10 10:18:51;;;;;;;740.83;98.80;;;;;;;;;;5053079;28;20897;-71
2022/12/10 10:21:23;;;;;;;561.42;86.30;;;;;;;;;;5041115;28;20413;-71
2022/12/10 10:23:49;;;;;;;472.20;76.30;;;;;;;;;;5051521;28;20745;-71
2022/12/10 10:26:16;;;;;;;549.53;86.30;;;;;;;;;;5045179;28;20418;-70
2022/12/10 10:28:42;;;;;;;487.70;80.90;;;;;;;;;;5042024;28;20421;-70
2022/12/10 10:31:25;;;;;;;1065.82;125.72;;;;;;;;;;5044732;28;20463;-69
2022/12/10 10:34:02;;;;;;;552.75;85.35;;;;;;;;;;5046069;28;20421;-70
2022/12/10 10:36:38;;;;;;;425.38;72.25;;;;;;;;;;5041183;28;20450;-71
2022/12/10 10:39:12;;;;;;;540.10;84.57;;;;;;;;;;5044137;28;20858;-71
2022/12/10 10:41:39;;;;;;;1196.72;140.30;;;;;;;;;;5032381;28;20425;-71
2022/12/10 10:44:13;;;;;;;543.00;83.18;;;;;;;;;;5034051;28;20463;-70
2022/12/10 10:46:39;;;;;;;503.33;79.17;;;;;;;;;;5033316;28;20417;-68
2022/12/10 10:49:19;;;;;;;469.95;73.40;;;;;;;;;;5050111;28;20443;-70
2022/12/10 10:51:46;;;;;;;618.17;91.65;;;;;;;;;;5044412;28;20511;-70
2022/12/10 10:54:12;;;;;;;515.75;79.60;;;;;;;;;;5047807;28;20428;-70
2022/12/10 10:56:41;;;;;;;368.30;65.25;;;;;;;;;;5048879;28;20425;-70
2022/12/10 10:59:07;;;;;;;424.80;74.72;;;;;;;;;;5039461;28;20971;-71
2022/12/10 11:01:53;;;;;;;555.33;88.70;;;;;;;;;;5039599;28;21559;-69
2022/12/10 11:04:23;;;;;;;369.85;67.32;;;;;;;;;;5033185;28;20423;-70
2022/12/10 11:06:51;;;;;;;360.73;66.97;;;;;;;;;;5019564;28;20536;-70
2022/12/10 11:09:22;;;;;;;390.55;72.20;;;;;;;;;;5041408;28;20951;-70
2022/12/10 11:12:07;;;;;;;354.48;74.07;;;;;;;;;;5048348;28;20448;-70
2022/12/10 11:14:41;;;;;;;408.70;77.97;;;;;;;;;;5048071;28;20425;-70
2022/12/10 11:17:10;;;;;;;354.27;67.55;;;;;;;;;;5044622;28;20429;-70
2022/12/10 11:19:42;;;;;;;406.02;74.85;;;;;;;;;;5037994;28;20420;-70
2022/12/10 11:22:16;;;;;;;671.25;99.72;;;;;;;;;;5042261;28;20444;-69
2022/12/10 11:24:42;;;;;;;774.08;106.18;;;;;;;;;;5027659;28;20425;-70
2022/12/10 11:27:16;;;;;;;323.20;64.45;;;;;;;;;;5032025;28;20414;-69
2022/12/10 11:29:51;;;;;;;244.65;57.75;;;;;;;;;;5028379;28;20425;-70
2022/12/10 11:32:35;;;;;;;281.00;59.63;;;;;;;;;;5048004;28;20549;-69
2022/12/10 11:35:14;;;;;;;280.17;59.92;;;;;;;;;;5046864;28;20425;-70
2022/12/10 11:37:40;;;;;;;632.35;87.60;;;;;;;;;;5049043;28;20426;-70
2022/12/10 11:40:25;;;;;;;241.70;55.67;;;;;;;;;;5043486;28;20417;-70
2022/12/10 11:42:58;;;;;;;275.23;56.60;;;;;;;;;;5033424;28;20425;-70
2022/12/10 11:45:59;;;;;;;273.08;60.70;;;0.10;99.90;;;;;;5035625;28;21803;-70
2022/12/10 11:48:45;;;;;;;306.58;59.95;;;;;;;;;;5037373;28;20407;-70
2022/12/10 11:51:14;;;;;;;474.55;74.22;;;;;;;;;;5047208;28;20426;-71
2022/12/10 11:53:55;;;;;;;390.15;66.88;;;;;;;;;;5038963;28;20423;-71
2022/12/10 11:56:22;;;;;;;362.92;63.58;;;;;;;;;;5038817;28;20441;-71
2022/12/10 11:58:52;;;;;;;304.05;59.60;;;;;;;;;;5032046;28;20431;-71
2022/12/10 12:01:21;;;;;;;518.03;78.95;;;;;;;;;;5050417;28;20409;-71
2022/12/10 12:03:53;;;;;;;688.37;92.53;;;;;;;;;;5046483;28;20425;-71
2022/12/10 12:06:26;;;;;;;339.02;62.47;;;;;;;;;;5041934;28;20423;-70
2022/12/10 12:08:55;;;;;;;286.33;56.05;;;;;;;;;;5027385;28;20781;-71
2022/12/10 12:11:21;;;;;;;256.70;54.25;;;;;;;;;;5044677;28;20432;-72
2022/12/10 12:14:00;;;;;;;285.92;59.10;;;;;;;;;;5037620;28;20466;-71
2022/12/10 12:16:43;;;;;;;336.35;64.93;;;;;;;;;;5044354;28;20429;-71
2022/12/10 12:19:15;;;;;;;309.88;60.25;;;;;;;;;;5043349;28;20437;-70
2022/12/10 12:21:42;;;;;;;390.73;64.07;;;;;;;;;;5049413;28;20921;-70
2022/12/10 12:24:18;;;;;;;282.40;56.45;;;;;;;;;;5029480;28;20407;-70
2022/12/10 12:27:07;;;;;;;328.67;60.63;;;;;;;;;;5046117;28;20415;-71
2022/12/10 12:29:41;;;;;;;328.23;60.28;;;;;;;;;;5051461;28;20425;-79
2022/12/10 12:32:15;;;;;;;342.60;61.80;;;;;;;;;;5040914;28;20483;-78
2022/12/10 12:35:00;;;;;;;351.90;65.38;;;;;;;;;;5049488;28;20421;-80
2022/12/10 12:37:30;;;;;;;272.70;58.45;;;;;;;;;;5042906;28;20449;-79
2022/12/10 12:40:05;;;;;;;223.30;51.78;;;;;;;;;;5044308;28;20424;-79
2022/12/10 12:42:36;;;;;;;148.63;42.83;;;;;;;;;;5029777;28;20507;-79
2022/12/10 12:45:05;;;;;;;163.95;42.92;;;;;;;;;;5043007;28;20476;-79
2022/12/10 12:47:50;;;;;;;170.07;44.70;;;;;;;;;;5045764;28;20512;-80
2022/12/10 12:50:35;;;;;;;199.23;48.35;;;;;;;;;;5047580;28;20500;-80
2022/12/10 12:53:02;;;;;;;160.77;43.72;;;;;;;;;;5045340;28;20738;-79
2022/12/10 12:55:32;;;;;;;159.27;43.65;;;;;;;;;;5023629;28;20438;-80
2022/12/10 12:58:18;;;;;;;151.18;41.70;;;;;;;;;;5035192;28;20436;-71
2022/12/10 13:00:47;;;;;;;148.15;42.13;;;;;;;;;;5032596;28;20428;-71
2022/12/10 13:03:25;;;;;;;150.02;42.55;;;;;;;;;;5034211;28;20437;-71
2022/12/10 13:05:54;;;;;;;149.38;41.17;;;;;;;;;;5030446;28;20496;-71
2022/12/10 13:08:20;;;;;;;148.00;41.85;;;;;;;;;;5030238;28;20425;-71
2022/12/10 13:10:52;;;;;;;152.93;41.92;;;;;;;;;;5025405;28;20421;-71
2022/12/10 13:13:18;;;;;;;150.13;43.10;;;;;;;;;;5032538;28;20427;-71
2022/12/10 13:15:44;;;;;;;381.70;59.92;;;;;;;;;;5046927;28;20397;-71
2022/12/10 13:18:10;;;;;;;192.95;48.25;;;;;;;;;;5045651;28;20487;-71
2022/12/10 13:20:49;;;;;;;221.00;47.97;;;;;;;;;;5039992;28;20423;-71
2022/12/10 13:23:24;;;;;;;182.88;46.20;;;;;;;;;;5047123;28;20417;-71
2022/12/10 13:25:50;;;;;;;199.52;47.10;;;;;;;;;;5029698;28;20553;-70
2022/12/10 13:28:27;;;;;;;285.75;54.53;;;;;;;;;;5018636;28;20919;-70
2022/12/10 13:31:17;;;;;;;332.00;53.63;;;;;;;;;;5042396;28;20433;-70
2022/12/10 13:34:04;;;;;;;161.55;44.15;;;;;;;;;;5049129;28;20405;-70
2022/12/10 13:36:33;;;;;;;173.73;45.27;;;;;;;;;;5041026;28;20781;-70
2022/12/10 13:39:05;;;;;;;154.23;43.53;;;;;;;;;;5019782;28;20488;-70
2022/12/10 13:44:35;;;;;;;155.20;43.45;;;;;;;;;;5045996;28;20421;-79
2022/12/10 13:47:10;;;;;;;149.80;43.53;;;;;;;;;;5022346;28;20434;-79
2022/12/10 13:49:55;;;;;;;172.00;44.97;;;;;;;;;;5028029;28;20466;-79
2022/12/10 13:52:33;;;;;;;161.98;45.05;;;;;;;;;;5041132;28;20429;-80
2022/12/10 13:55:02;;;;;;;172.13;43.93;;;;;;;;;;5034614;28;20878;-80
2022/12/10 13:57:47;;;;;;;334.58;56.22;;;;;;;;;;5048828;28;20425;-80
2022/12/10 14:00:18;;;;;;;167.23;44.10;;;;;;;;;;5043758;28;20417;-71
2022/12/10 14:02:53;;;;;;;159.93;44.17;;;;;;;;;;5039607;28;20496;-70
2022/12/10 14:05:38;;;;;;;168.82;44.75;;;;;;;;;;5025946;28;20423;-70
2022/12/10 14:08:04;;;;;;;491.50;71.40;;;;;;;;;;5030837;28;20434;-70
2022/12/10 14:10:33;;;;;;;165.57;44.83;;;;;;;;;;5045484;28;20456;-70
2022/12/10 14:13:00;;;;;;;184.73;46.63;;;;;;;;;;5028948;28;20925;-70
2022/12/10 14:15:27;;;;;;;185.13;47.63;;;;;;;;;;5040663;28;20420;-69
2022/12/10 14:18:13;;;;;;;170.25;44.38;;;;;;;;;;5040599;28;20460;-70
2022/12/10 14:20:42;;;;;;;189.77;46.75;;;;;;;;;;5046086;28;20421;-70
2022/12/10 14:23:33;;;;;;;223.50;49.53;;;;;;;;;;5036968;28;20433;-70
2022/12/10 14:26:04;;;;;;;181.23;47.72;;;;;;;;;;5039308;28;20423;-70